Time;durP1;ratioP1;P1;durP2;ratioP2;P2;SDS_P1;SDS_P2;PMS_P1;PMS_P2;Temp;Humidity;BMP_temperature;BMP_pressure;BME280_temperature;BME280_humidity;BME280_pressure;Samples;Min_cycle;Max_cycle;Signal;HPM_P1;HPM_P2
2021/12/22 00:02:23;;;;;;;19.23;11.63;;;0.60;68.50;;;;;;5032179;28;20195;-67
2021/12/22 00:04:50;;;;;;;17.50;11.25;;;0.50;67.70;;;;;;5031262;28;20199;-68
2021/12/22 00:07:18;;;;;;;16.70;9.60;;;0.30;67.90;;;;;;5032194;28;20586;-67
2021/12/22 00:09:45;;;;;;;15.93;9.60;;;0.30;68.60;;;;;;5032202;28;20202;-67
2021/12/22 00:12:15;;;;;;;13.68;8.93;;;0.30;67.70;;;;;;5031250;28;20340;-67
2021/12/22 00:14:43;;;;;;;16.40;10.20;;;0.30;68.10;;;;;;5039916;28;20607;-68
2021/12/22 00:17:11;;;;;;;15.60;10.30;;;0.30;68.40;;;;;;5032098;28;20306;-67
2021/12/22 00:19:39;;;;;;;18.20;11.20;;;0.30;68.50;;;;;;5031285;28;20191;-67
2021/12/22 00:22:06;;;;;;;14.73;10.43;;;0.30;69.10;;;;;;5031681;28;20200;-68
2021/12/22 00:24:34;;;;;;;15.30;12.65;;;0.40;68.70;;;;;;5026911;28;20183;-67
2021/12/22 00:27:02;;;;;;;14.93;10.52;;;0.20;68.90;;;;;;5032110;28;20229;-67
2021/12/22 00:29:30;;;;;;;14.02;10.20;;;0.20;68.80;;;;;;5039468;28;20198;-67
2021/12/22 00:32:09;;;;;;;18.27;11.55;;;0.10;68.80;;;;;;5048653;28;20195;-67
2021/12/22 00:34:46;;;;;;;17.40;11.90;;;0.10;69.40;;;;;;5040800;28;20281;-68
2021/12/22 00:37:14;;;;;;;20.83;12.63;;;0.20;69.40;;;;;;5031944;28;20278;-67
2021/12/22 00:39:43;;;;;;;16.70;10.50;;;0.20;69.50;;;;;;5030692;28;20885;-67
2021/12/22 00:42:11;;;;;;;16.90;12.02;;;0.10;69.00;;;;;;5031681;28;20195;-67
2021/12/22 00:44:39;;;;;;;16.02;10.45;;;0.20;69.40;;;;;;5030821;28;20180;-72
2021/12/22 00:47:06;;;;;;;18.40;12.48;;;0.00;69.30;;;;;;5032000;28;20219;-67
2021/12/22 00:49:34;;;;;;;16.23;11.52;;;-0.10;70.00;;;;;;5031402;28;20194;-67
2021/12/22 00:52:08;;;;;;;19.55;12.20;;;-0.10;70.10;;;;;;5031892;28;20195;-67
2021/12/22 00:54:35;;;;;;;14.70;10.93;;;-0.10;70.30;;;;;;5025245;28;20184;-67
2021/12/22 00:57:05;;;;;;;18.08;12.18;;;-0.10;70.30;;;;;;5012192;28;20191;-67
2021/12/22 00:59:33;;;;;;;16.48;11.82;;;0.00;70.20;;;;;;5017150;28;20546;-67
2021/12/22 01:02:02;;;;;;;13.75;10.23;;;0.00;70.50;;;;;;5031621;28;20196;-67
2021/12/22 01:04:29;;;;;;;15.32;10.60;;;0.00;70.60;;;;;;5015765;28;20196;-67
2021/12/22 01:06:56;;;;;;;14.50;10.00;;;-0.10;70.90;;;;;;5011929;28;20538;-67
2021/12/22 01:09:25;;;;;;;20.35;13.00;;;-0.10;70.70;;;;;;5026270;28;20553;-67
2021/12/22 01:11:52;;;;;;;16.33;10.82;;;-0.20;71.40;;;;;;5031431;28;20242;-67
2021/12/22 01:14:21;;;;;;;19.85;11.18;;;-0.20;71.40;;;;;;5017972;28;20199;-67
2021/12/22 01:16:50;;;;;;;14.95;11.45;;;-0.20;71.30;;;;;;5012025;28;20193;-68
2021/12/22 01:19:24;;;;;;;15.85;12.20;;;-0.10;71.20;;;;;;5019845;28;20184;-67
2021/12/22 01:21:58;;;;;;;20.13;11.35;;;-0.20;71.10;;;;;;5014036;28;20195;-67
2021/12/22 01:24:32;;;;;;;18.20;13.70;;;-0.30;71.30;;;;;;5012156;28;20196;-67
2021/12/22 01:27:06;;;;;;;17.42;12.45;;;-0.30;71.70;;;;;;5024626;28;20188;-67
2021/12/22 01:29:35;;;;;;;18.15;11.60;;;-0.30;71.70;;;;;;5031485;28;20223;-67
2021/12/22 01:32:02;;;;;;;17.98;12.75;;;-0.20;71.90;;;;;;5018300;28;20239;-67
2021/12/22 01:34:30;;;;;;;17.92;10.80;;;-0.20;72.00;;;;;;5015085;28;20489;-67
2021/12/22 01:36:58;;;;;;;16.92;12.00;;;-0.20;71.80;;;;;;5026574;28;20192;-67
2021/12/22 01:39:27;;;;;;;21.67;12.52;;;-0.10;71.50;;;;;;5035501;28;20200;-67
2021/12/22 01:41:56;;;;;;;20.83;12.27;;;-0.20;71.40;;;;;;5024414;28;20218;-72
2021/12/22 01:44:31;;;;;;;18.42;12.57;;;-0.10;71.40;;;;;;5015231;28;20192;-67
2021/12/22 01:49:50;;;;;;;15.65;11.80;;;-0.20;70.90;;;;;;5034975;28;20208;-67
2021/12/22 01:52:18;;;;;;;19.05;12.40;;;-0.30;71.10;;;;;;5022237;28;20610;-68
2021/12/22 01:54:51;;;;;;;19.23;13.50;;;-0.30;71.70;;;;;;5020074;28;20184;-67
2021/12/22 01:57:21;;;;;;;18.08;11.77;;;-0.20;71.50;;;;;;5034856;28;20654;-67
2021/12/22 01:59:50;;;;;;;19.45;11.88;;;-0.20;71.30;;;;;;5015485;28;20648;-67
2021/12/22 02:02:18;;;;;;;16.75;12.02;;;-0.30;71.70;;;;;;5014901;28;20363;-68
2021/12/22 02:04:45;;;;;;;20.63;12.63;;;-0.30;72.20;;;;;;5031874;28;20552;-67
2021/12/22 02:07:14;;;;;;;19.58;12.82;;;-0.40;72.80;;;;;;5034510;28;20237;-67
2021/12/22 02:12:30;;;;;;;17.08;10.98;;;-0.50;72.50;;;;;;5004572;28;20233;-67
2021/12/22 02:14:58;;;;;;;18.48;11.90;;;-0.40;72.40;;;;;;5032181;28;20195;-67
2021/12/22 02:17:27;;;;;;;16.40;12.02;;;-0.40;72.60;;;;;;5034392;28;20208;-67
2021/12/22 02:19:56;;;;;;;19.52;12.75;;;-0.40;72.50;;;;;;5017367;28;20214;-67
2021/12/22 02:22:24;;;;;;;15.82;11.43;;;-0.50;73.30;;;;;;5014379;28;20199;-71
2021/12/22 02:24:56;;;;;;;20.10;11.07;;;-0.50;72.90;;;;;;5034029;28;20574;-69
2021/12/22 02:27:30;;;;;;;19.20;10.73;;;-0.50;71.90;;;;;;5032144;28;20200;-69
2021/12/22 02:30:00;;;;;;;16.50;11.15;;;-0.60;71.30;;;;;;5034296;28;20658;-67
2021/12/22 02:32:57;;;;;;;22.15;11.98;;;-0.60;71.10;;;;;;5030938;28;20191;-67
2021/12/22 02:35:38;;;;;;;15.50;11.20;;;-0.50;71.10;;;;;;5015112;28;20219;-67
2021/12/22 02:38:07;;;;;;;18.73;12.60;;;-0.50;71.10;;;;;;5033908;28;20188;-67
2021/12/22 02:40:35;;;;;;;17.90;12.35;;;-0.50;71.10;;;;;;5031551;28;20666;-67
2021/12/22 02:43:05;;;;;;;18.10;12.35;;;-0.40;71.50;;;;;;5014161;28;20655;-68
2021/12/22 02:45:33;;;;;;;16.38;12.10;;;-0.40;71.30;;;;;;5014618;28;20200;-67
2021/12/22 02:48:01;;;;;;;15.85;11.30;;;-0.30;71.60;;;;;;5033885;28;20593;-67
2021/12/22 02:50:30;;;;;;;17.67;11.30;;;-0.30;70.90;;;;;;5032997;28;20192;-68
2021/12/22 02:53:04;;;;;;;16.40;9.70;;;-0.30;70.00;;;;;;5014818;28;20250;-67
2021/12/22 02:55:44;;;;;;;18.25;9.95;;;-0.40;69.80;;;;;;5013561;28;20651;-67
2021/12/22 02:58:15;;;;;;;15.70;11.63;;;-0.50;69.40;;;;;;5013959;28;20230;-67
2021/12/22 03:01:02;;;;;;;16.77;10.48;;;-0.50;69.90;;;;;;5014370;28;20266;-67
2021/12/22 03:03:45;;;;;;;18.65;10.43;;;-0.40;70.10;;;;;;5013900;28;20191;-67
2021/12/22 03:06:21;;;;;;;17.60;11.40;;;-0.40;70.10;;;;;;5017605;28;20184;-67
2021/12/22 03:08:48;;;;;;;17.52;10.02;;;-0.30;70.30;;;;;;5033598;28;20314;-67
2021/12/22 03:11:17;;;;;;;16.48;11.88;;;-0.40;69.90;;;;;;5025024;28;20220;-67
2021/12/22 03:13:45;;;;;;;18.95;11.45;;;-0.30;70.00;;;;;;5013906;28;20196;-67
2021/12/22 03:16:12;;;;;;;16.17;10.75;;;-0.30;69.90;;;;;;5020403;28;20188;-68
2021/12/22 03:18:40;;;;;;;20.45;13.70;;;-0.30;69.50;;;;;;5033594;28;20196;-67
2021/12/22 03:21:18;;;;;;;20.10;12.18;;;-0.30;69.60;;;;;;5026820;28;20230;-73
2021/12/22 03:23:47;;;;;;;22.67;12.85;;;-0.30;69.90;;;;;;5013553;28;20200;-67
2021/12/22 03:26:17;;;;;;;17.05;11.75;;;-0.20;70.00;;;;;;5024990;28;20199;-67
2021/12/22 03:28:45;;;;;;;16.55;10.82;;;-0.30;69.80;;;;;;5013324;28;20587;-67
2021/12/22 03:31:12;;;;;;;17.20;11.50;;;-0.20;70.20;;;;;;5031095;28;20184;-67
2021/12/22 03:33:40;;;;;;;13.57;10.35;;;-0.30;69.70;;;;;;5033079;28;20195;-68
2021/12/22 03:36:07;;;;;;;17.67;11.40;;;-0.30;69.60;;;;;;5016005;28;20220;-67
2021/12/22 03:38:35;;;;;;;15.95;10.15;;;-0.30;70.10;;;;;;5013016;28;20585;-67
2021/12/22 03:41:06;;;;;;;14.50;10.40;;;-0.30;70.20;;;;;;5027946;28;20197;-67
2021/12/22 03:43:35;;;;;;;18.20;10.85;;;-0.30;69.90;;;;;;5032756;28;20728;-67
2021/12/22 03:46:03;;;;;;;18.23;11.98;;;-0.30;69.70;;;;;;5017657;28;20658;-67
2021/12/22 03:48:30;;;;;;;18.45;12.20;;;-0.30;69.40;;;;;;5013053;28;20270;-68
2021/12/22 03:50:57;;;;;;;15.82;11.23;;;-0.30;69.50;;;;;;5025344;28;20240;-67
2021/12/22 03:53:24;;;;;;;16.15;11.35;;;-0.30;69.60;;;;;;5020841;28;20187;-67
2021/12/22 03:55:52;;;;;;;19.55;11.95;;;-0.30;69.50;;;;;;5012281;28;20670;-67
2021/12/22 03:58:21;;;;;;;16.42;12.25;;;-0.50;69.80;;;;;;5022099;28;20628;-68
2021/12/22 04:00:51;;;;;;;22.05;12.30;;;-0.50;69.90;;;;;;5032235;28;20199;-67
2021/12/22 04:03:22;;;;;;;17.85;12.18;;;-0.50;70.50;;;;;;5022766;28;20192;-67
2021/12/22 04:05:49;;;;;;;16.35;11.68;;;-0.60;70.70;;;;;;5012384;28;20514;-67
2021/12/22 04:08:18;;;;;;;20.73;11.43;;;-0.60;70.70;;;;;;5020140;28;20299;-68
2021/12/22 04:10:46;;;;;;;18.45;11.10;;;-0.70;70.80;;;;;;5031847;28;20745;-67
2021/12/22 04:13:21;;;;;;;18.75;12.00;;;-0.70;70.90;;;;;;5024259;28;20282;-67
2021/12/22 04:15:48;;;;;;;17.45;11.98;;;-0.70;71.20;;;;;;5012297;28;20286;-67
2021/12/22 04:18:16;;;;;;;17.05;12.65;;;-0.80;71.10;;;;;;5030203;28;20614;-67
2021/12/22 04:20:43;;;;;;;25.27;12.63;;;-0.80;71.30;;;;;;5026371;28;20195;-69
2021/12/22 04:23:10;;;;;;;18.73;12.52;;;-0.70;71.30;;;;;;5012364;28;20242;-67
2021/12/22 04:25:38;;;;;;;20.75;12.55;;;-0.80;71.30;;;;;;5015743;28;20190;-67
2021/12/22 04:28:09;;;;;;;19.95;12.02;;;-0.80;71.50;;;;;;5030104;28;20716;-67
2021/12/22 04:30:40;;;;;;;21.60;14.93;;;-0.80;72.60;;;;;;5028355;28;20598;-67
2021/12/22 04:33:08;;;;;;;16.45;11.95;;;-0.80;71.80;;;;;;5012093;28;20196;-67
2021/12/22 04:35:36;;;;;;;15.02;12.00;;;-0.70;71.80;;;;;;5013881;28;20310;-67
2021/12/22 04:38:04;;;;;;;19.40;11.60;;;-0.70;71.40;;;;;;5031687;28;20222;-67
2021/12/22 04:40:31;;;;;;;21.65;11.07;;;-0.80;71.90;;;;;;5030103;28;20597;-67
2021/12/22 04:42:58;;;;;;;23.27;12.70;;;-0.80;71.60;;;;;;5011951;28;20246;-67
2021/12/22 04:45:26;;;;;;;19.67;13.07;;;-0.80;71.90;;;;;;5011594;28;20242;-71
2021/12/22 04:47:55;;;;;;;20.27;13.13;;;-0.70;72.00;;;;;;5012151;28;20555;-67
2021/12/22 04:50:28;;;;;;;22.52;13.50;;;-0.70;71.40;;;;;;5030173;28;20195;-67
2021/12/22 04:53:01;;;;;;;21.33;13.43;;;-0.70;71.50;;;;;;5031752;28;20641;-67
2021/12/22 04:55:29;;;;;;;26.05;14.45;;;-0.60;71.50;;;;;;5012328;28;20275;-67
2021/12/22 04:58:00;;;;;;;21.08;13.77;;;-0.60;71.80;;;;;;5011908;28;20193;-67
2021/12/22 05:00:44;;;;;;;21.00;15.55;;;-0.60;71.70;;;;;;5029303;28;20255;-67
2021/12/22 05:03:17;;;;;;;22.30;14.50;;;-0.70;71.50;;;;;;5031630;28;20230;-67
2021/12/22 05:05:45;;;;;;;20.63;13.32;;;-0.60;71.90;;;;;;5011611;28;20201;-67
2021/12/22 05:08:18;;;;;;;21.75;14.55;;;-0.70;71.70;;;;;;5013013;28;20197;-68
2021/12/22 05:10:45;;;;;;;21.90;13.82;;;-0.70;72.00;;;;;;5035049;28;20188;-67
2021/12/22 05:13:18;;;;;;;23.80;15.70;;;-0.60;72.20;;;;;;5035453;28;20549;-67
2021/12/22 05:15:47;;;;;;;23.38;15.52;;;-0.60;71.90;;;;;;5016415;28;20192;-68
2021/12/22 05:18:22;;;;;;;23.50;14.07;;;-0.60;72.00;;;;;;5016802;28;20303;-67
2021/12/22 05:20:54;;;;;;;26.95;14.57;;;-0.60;72.00;;;;;;5015813;28;20203;-67
2021/12/22 05:23:22;;;;;;;20.67;14.38;;;-0.60;72.20;;;;;;5026403;28;20192;-67
2021/12/22 05:25:57;;;;;;;26.73;14.57;;;-0.60;72.40;;;;;;5016308;28;20223;-67
2021/12/22 05:28:29;;;;;;;21.83;13.52;;;-0.70;72.60;;;;;;5015495;28;20246;-67
2021/12/22 05:30:56;;;;;;;24.88;14.55;;;-0.80;73.00;;;;;;5029655;28;20195;-67
2021/12/22 05:33:26;;;;;;;23.75;13.57;;;-0.80;73.00;;;;;;5035209;28;20248;-67
2021/12/22 05:35:55;;;;;;;23.10;13.60;;;-0.80;72.90;;;;;;5033441;28;20606;-67
2021/12/22 05:38:23;;;;;;;24.48;14.45;;;-0.80;73.30;;;;;;5034800;28;20200;-67
2021/12/22 05:40:50;;;;;;;19.42;13.23;;;-0.80;73.50;;;;;;5022214;28;20192;-68
2021/12/22 05:43:17;;;;;;;25.55;16.35;;;-0.80;73.80;;;;;;5015337;28;20188;-67
2021/12/22 05:45:45;;;;;;;24.75;15.65;;;-0.80;73.60;;;;;;5026016;28;20234;-67
2021/12/22 05:48:13;;;;;;;19.92;14.65;;;-0.90;73.50;;;;;;5035390;28;20195;-69
2021/12/22 05:50:43;;;;;;;23.38;14.98;;;-0.90;73.80;;;;;;5025941;28;20193;-68
2021/12/22 05:53:17;;;;;;;25.02;16.80;;;-0.90;74.30;;;;;;5017155;28;20192;-68
2021/12/22 05:55:45;;;;;;;24.70;14.57;;;-1.00;74.20;;;;;;5035272;28;20191;-69
2021/12/22 05:58:12;;;;;;;23.33;14.80;;;-1.00;74.20;;;;;;5033254;28;20192;-68
2021/12/22 06:00:48;;;;;;;26.10;16.80;;;-1.00;74.30;;;;;;5015546;28;20238;-67
2021/12/22 06:03:15;;;;;;;22.95;14.20;;;-0.90;74.00;;;;;;5015557;28;20207;-68
2021/12/22 06:05:43;;;;;;;27.00;16.65;;;-0.90;73.90;;;;;;5015415;28;20299;-68
2021/12/22 06:08:10;;;;;;;21.48;15.00;;;-0.90;73.70;;;;;;5029172;28;20558;-68
2021/12/22 06:10:39;;;;;;;22.42;14.82;;;-0.90;74.40;;;;;;5035158;28;20223;-68
2021/12/22 06:13:09;;;;;;;19.60;13.30;;;-1.00;73.80;;;;;;5021184;28;20279;-68
2021/12/22 06:15:40;;;;;;;19.60;13.80;;;-1.00;74.10;;;;;;5015069;28;20282;-68
2021/12/22 06:18:10;;;;;;;23.83;14.05;;;-1.00;74.30;;;;;;5027571;28;20194;-67
2021/12/22 06:20:38;;;;;;;24.02;15.75;;;-1.00;74.20;;;;;;5018076;28;20235;-67
2021/12/22 06:23:05;;;;;;;23.13;14.75;;;-0.90;74.10;;;;;;5014983;28;20217;-67
2021/12/22 06:25:34;;;;;;;26.17;14.65;;;-0.80;74.10;;;;;;5020735;28;20305;-67
2021/12/22 06:28:03;;;;;;;20.85;13.70;;;-0.80;74.00;;;;;;5034615;28;20198;-68
2021/12/22 06:30:30;;;;;;;21.23;14.20;;;-0.80;73.50;;;;;;5028681;28;20243;-68
2021/12/22 06:32:58;;;;;;;19.70;13.07;;;-0.80;73.30;;;;;;5014737;28;20238;-69
2021/12/22 06:35:25;;;;;;;23.35;13.82;;;-0.80;73.10;;;;;;5018440;28;20215;-68
2021/12/22 06:37:53;;;;;;;21.42;13.90;;;-0.80;72.90;;;;;;5033523;28;20188;-67
2021/12/22 06:40:21;;;;;;;22.77;13.05;;;-0.80;72.80;;;;;;5031281;28;20188;-67
2021/12/22 06:42:50;;;;;;;26.45;16.05;;;-0.80;72.80;;;;;;5014791;28;20280;-68
2021/12/22 06:45:21;;;;;;;20.45;13.77;;;-0.90;73.10;;;;;;5016214;28;20196;-68
2021/12/22 06:47:48;;;;;;;21.00;13.20;;;-0.90;73.40;;;;;;5034509;28;20238;-67
2021/12/22 06:50:16;;;;;;;22.70;15.70;;;-0.90;73.90;;;;;;5032254;28;20269;-68
2021/12/22 06:52:43;;;;;;;30.02;15.65;;;-1.00;74.50;;;;;;5014372;28;20228;-68
2021/12/22 06:55:11;;;;;;;24.50;14.48;;;-1.00;73.90;;;;;;5023244;28;20274;-68
2021/12/22 06:57:43;;;;;;;24.33;15.07;;;-1.10;74.50;;;;;;5034076;28;20195;-67
2021/12/22 07:00:13;;;;;;;28.15;15.10;;;-1.10;74.90;;;;;;5024260;28;20188;-67
2021/12/22 07:02:42;;;;;;;25.08;14.43;;;-1.00;74.90;;;;;;5014384;28;20256;-67
2021/12/22 07:05:11;;;;;;;27.27;14.18;;;-1.00;74.70;;;;;;5022306;28;20219;-68
2021/12/22 07:07:39;;;;;;;22.65;13.27;;;-1.00;74.40;;;;;;5033983;28;20538;-67
2021/12/22 07:10:08;;;;;;;20.05;12.75;;;-0.90;74.40;;;;;;5025654;28;20223;-68
2021/12/22 07:12:36;;;;;;;23.60;13.93;;;-1.00;74.50;;;;;;5013952;28;20250;-67
2021/12/22 07:15:04;;;;;;;18.00;13.50;;;-1.00;74.20;;;;;;5029844;28;20647;-67
2021/12/22 07:17:32;;;;;;;21.77;14.60;;;-1.00;74.60;;;;;;5033915;28;20198;-67
2021/12/22 07:20:00;;;;;;;26.48;17.02;;;-1.00;74.80;;;;;;5018162;28;20267;-68
2021/12/22 07:22:27;;;;;;;22.08;13.38;;;-1.00;74.60;;;;;;5013778;28;20260;-68
2021/12/22 07:24:55;;;;;;;24.13;15.85;;;-1.00;74.60;;;;;;5028594;28;20245;-67
2021/12/22 07:27:22;;;;;;;21.33;13.32;;;-1.10;74.30;;;;;;5033544;28;20204;-67
2021/12/22 07:29:49;;;;;;;22.40;13.63;;;-1.20;74.90;;;;;;5018990;28;20220;-67
2021/12/22 07:32:16;;;;;;;23.00;12.70;;;-1.20;75.20;;;;;;5013335;28;20227;-68
2021/12/22 07:34:52;;;;;;;27.83;14.30;;;-1.20;75.10;;;;;;5025361;28;20187;-68
2021/12/22 07:37:33;;;;;;;24.08;15.25;;;-1.20;74.70;;;;;;5033393;28;20247;-68
2021/12/22 07:40:00;;;;;;;23.08;14.75;;;-1.10;75.10;;;;;;5018536;28;20192;-67
2021/12/22 07:42:27;;;;;;;21.90;14.15;;;-1.00;75.00;;;;;;5013457;28;20199;-67
2021/12/22 07:44:55;;;;;;;20.92;12.95;;;-0.90;74.10;;;;;;5026383;28;20184;-68
2021/12/22 07:47:22;;;;;;;23.55;14.40;;;-0.90;73.60;;;;;;5033057;28;20699;-67
2021/12/22 07:49:50;;;;;;;23.05;13.65;;;-0.90;73.50;;;;;;5020463;28;20235;-67
2021/12/22 07:52:18;;;;;;;23.83;15.60;;;-0.90;73.90;;;;;;5013038;28;20199;-68
2021/12/22 07:54:47;;;;;;;21.65;14.02;;;-0.80;74.30;;;;;;5023776;28;20307;-68
2021/12/22 07:57:14;;;;;;;20.60;12.75;;;-0.70;74.00;;;;;;5023297;28;20216;-68
2021/12/22 07:59:41;;;;;;;20.13;13.20;;;-0.70;73.90;;;;;;5013065;28;20187;-68
2021/12/22 08:02:10;;;;;;;21.15;14.23;;;-0.60;73.70;;;;;;5027805;28;20854;-67
2021/12/22 08:04:37;;;;;;;21.17;12.85;;;-0.60;74.50;;;;;;5027658;28;20603;-68
2021/12/22 08:07:07;;;;;;;22.00;13.63;;;-0.50;73.60;;;;;;5031333;28;20903;-68
2021/12/22 08:09:35;;;;;;;23.98;14.75;;;-0.40;73.00;;;;;;5031334;28;20211;-68
2021/12/22 08:12:05;;;;;;;26.75;13.88;;;-0.30;72.70;;;;;;5031487;28;20242;-68
2021/12/22 08:14:32;;;;;;;26.77;15.70;;;-0.30;72.10;;;;;;5031994;28;20184;-67
2021/12/22 08:16:59;;;;;;;22.50;13.95;;;-0.30;72.00;;;;;;5032278;28;20188;-68
2021/12/22 08:19:27;;;;;;;24.30;13.70;;;-0.20;71.70;;;;;;5040365;28;20286;-71
2021/12/22 08:21:55;;;;;;;23.25;13.48;;;-0.30;71.60;;;;;;5028167;28;20196;-68
2021/12/22 08:24:22;;;;;;;18.63;12.80;;;-0.30;71.00;;;;;;5032227;28;20195;-68
2021/12/22 08:26:50;;;;;;;19.58;13.35;;;-0.20;71.10;;;;;;5035182;28;20245;-67
2021/12/22 08:29:19;;;;;;;20.42;12.70;;;-0.20;70.70;;;;;;5028781;28;20654;-69
2021/12/22 08:31:46;;;;;;;19.63;13.75;;;-0.20;70.60;;;;;;5031564;28;20262;-67
2021/12/22 08:34:21;;;;;;;17.13;12.43;;;-0.20;70.50;;;;;;5032001;28;20194;-67
2021/12/22 08:39:34;;;;;;;18.65;13.77;;;-0.10;71.20;;;;;;5032100;28;20281;-68
2021/12/22 08:42:01;;;;;;;22.20;13.68;;;0.00;70.40;;;;;;5029084;28;20631;-68
2021/12/22 08:44:32;;;;;;;21.08;13.05;;;0.00;69.50;;;;;;5038473;28;20198;-68
2021/12/22 08:47:01;;;;;;;22.35;12.98;;;-0.10;69.30;;;;;;5033082;28;20256;-67
2021/12/22 08:49:28;;;;;;;24.65;14.50;;;-0.10;70.20;;;;;;5038137;28;20223;-68
2021/12/22 08:51:56;;;;;;;18.10;12.65;;;-0.10;70.00;;;;;;5037348;28;20253;-68
2021/12/22 08:54:23;;;;;;;21.95;12.35;;;-0.10;70.70;;;;;;5037750;28;20199;-67
2021/12/22 08:56:50;;;;;;;21.75;12.32;;;0.10;70.40;;;;;;5036569;28;20278;-68
2021/12/22 08:59:18;;;;;;;19.85;11.95;;;0.10;69.70;;;;;;5035776;28;20197;-68
2021/12/22 09:01:47;;;;;;;21.25;12.20;;;0.10;70.20;;;;;;5035789;28;20661;-68
2021/12/22 09:04:15;;;;;;;25.02;13.30;;;0.20;68.90;;;;;;5035523;28;20249;-68
2021/12/22 09:06:43;;;;;;;19.63;12.00;;;0.20;69.00;;;;;;5037605;28;20192;-69
2021/12/22 09:09:11;;;;;;;21.08;12.88;;;0.20;68.40;;;;;;5033875;28;20195;-67
2021/12/22 09:11:39;;;;;;;19.35;11.40;;;0.20;67.70;;;;;;5037946;28;20195;-70
2021/12/22 09:14:07;;;;;;;18.35;11.25;;;0.20;67.80;;;;;;5036987;28;20728;-67
2021/12/22 09:16:35;;;;;;;18.65;11.88;;;0.20;66.90;;;;;;5037479;28;20191;-70
2021/12/22 09:19:05;;;;;;;15.70;10.93;;;0.20;67.30;;;;;;5036988;28;20602;-67
2021/12/22 09:21:32;;;;;;;14.45;10.00;;;0.30;66.90;;;;;;5038617;28;20294;-67
2021/12/22 09:23:59;;;;;;;20.83;10.20;;;0.30;66.60;;;;;;5037557;28;20231;-67
2021/12/22 09:26:27;;;;;;;22.15;12.40;;;0.20;66.50;;;;;;5043487;28;20274;-67
2021/12/22 09:28:55;;;;;;;18.77;11.25;;;0.30;66.60;;;;;;5056050;28;21609;-67
2021/12/22 09:31:22;;;;;;;17.05;11.75;;;0.30;66.70;;;;;;5052517;28;20230;-67
2021/12/22 09:33:50;;;;;;;15.52;10.30;;;0.40;66.50;;;;;;5037268;28;20620;-67
2021/12/22 09:36:19;;;;;;;18.20;11.70;;;0.40;66.50;;;;;;5038472;28;20641;-66
2021/12/22 09:38:46;;;;;;;18.23;11.73;;;0.40;65.60;;;;;;5055870;28;20272;-67
2021/12/22 09:41:14;;;;;;;18.30;11.35;;;0.40;65.30;;;;;;5047487;28;20219;-67
2021/12/22 09:43:42;;;;;;;18.50;11.68;;;0.40;65.80;;;;;;5055791;28;20237;-67
2021/12/22 09:46:13;;;;;;;16.02;10.20;;;0.40;65.40;;;;;;5047026;28;20282;-67
2021/12/22 09:48:50;;;;;;;21.50;10.77;;;0.50;65.20;;;;;;5035306;28;20294;-68
2021/12/22 09:54:10;;;;;;;17.98;10.45;;;0.40;65.20;;;;;;5031848;28;20709;-66
2021/12/22 09:56:42;;;;;;;15.95;10.38;;;0.40;64.90;;;;;;5033641;28;20649;-67
2021/12/22 09:59:10;;;;;;;19.02;11.05;;;0.40;64.70;;;;;;5033171;28;20646;-67
2021/12/22 10:01:37;;;;;;;17.42;10.88;;;0.50;64.60;;;;;;5032437;28;20215;-67
2021/12/22 10:04:04;;;;;;;18.10;11.50;;;0.60;65.20;;;;;;5032350;28;20234;-66
2021/12/22 10:06:32;;;;;;;18.02;11.18;;;0.70;65.00;;;;;;5034431;28;20195;-66
2021/12/22 10:09:03;;;;;;;24.13;11.95;;;0.80;64.30;;;;;;5032622;28;20306;-67
2021/12/22 10:11:31;;;;;;;18.27;12.40;;;1.00;63.90;;;;;;5034431;28;20331;-67
2021/12/22 10:13:59;;;;;;;19.23;11.10;;;1.20;63.90;;;;;;5031908;28;20203;-67
2021/12/22 10:16:27;;;;;;;17.65;11.25;;;1.50;63.40;;;;;;5031321;28;20360;-67
2021/12/22 10:19:06;;;;;;;24.42;11.85;;;1.80;62.30;;;;;;5031939;28;20223;-67
2021/12/22 10:21:37;;;;;;;18.60;11.75;;;2.30;61.80;;;;;;5033987;28;20227;-68
2021/12/22 10:24:07;;;;;;;21.45;12.95;;;2.90;60.40;;;;;;5051448;28;20191;-70
2021/12/22 10:26:34;;;;;;;22.73;13.80;;;3.40;58.00;;;;;;5029501;28;20199;-67
2021/12/22 10:29:03;;;;;;;19.25;11.80;;;3.70;56.40;;;;;;5031929;28;20234;-68
2021/12/22 10:31:35;;;;;;;17.40;11.65;;;3.80;55.40;;;;;;5029810;28;20227;-67
2021/12/22 10:34:06;;;;;;;23.63;11.98;;;4.00;55.20;;;;;;5033745;28;20191;-67
2021/12/22 10:36:44;;;;;;;17.30;11.50;;;4.10;53.50;;;;;;5028419;28;20740;-68
2021/12/22 10:39:23;;;;;;;16.90;12.10;;;3.90;53.10;;;;;;5040378;28;20222;-67
2021/12/22 10:41:52;;;;;;;18.60;11.57;;;3.80;53.30;;;;;;5029820;28;20238;-66
2021/12/22 10:44:20;;;;;;;20.02;11.02;;;3.60;53.20;;;;;;5030820;28;20203;-67
2021/12/22 10:46:47;;;;;;;20.85;12.75;;;3.40;53.80;;;;;;5033686;28;20203;-67
2021/12/22 10:49:20;;;;;;;18.48;10.68;;;3.30;53.90;;;;;;5033726;28;20227;-67
2021/12/22 10:51:57;;;;;;;18.02;10.65;;;3.10;54.20;;;;;;5033502;28;20589;-67
2021/12/22 10:54:33;;;;;;;17.15;10.50;;;2.90;54.50;;;;;;5033290;28;20245;-68
2021/12/22 10:57:01;;;;;;;18.40;11.63;;;3.00;55.20;;;;;;5033488;28;20238;-67
2021/12/22 10:59:42;;;;;;;18.05;11.75;;;3.40;55.50;;;;;;5033500;28;20203;-67
2021/12/22 11:02:11;;;;;;;16.80;10.43;;;3.80;54.50;;;;;;5033464;28;20653;-67
2021/12/22 11:04:44;;;;;;;16.55;10.70;;;4.20;54.20;;;;;;5032431;28;20556;-67
2021/12/22 11:07:21;;;;;;;19.00;11.63;;;5.00;54.70;;;;;;5028971;28;20187;-69
2021/12/22 11:09:51;;;;;;;15.25;10.43;;;5.80;51.90;;;;;;5029306;28;20191;-67
2021/12/22 11:12:33;;;;;;;16.45;10.88;;;6.60;49.80;;;;;;5041416;28;20188;-67
2021/12/22 11:15:01;;;;;;;18.60;9.32;;;6.90;47.50;;;;;;5030765;28;20763;-68
2021/12/22 11:17:29;;;;;;;16.63;11.18;;;7.10;46.10;;;;;;5030233;28;20190;-69
2021/12/22 11:20:01;;;;;;;13.70;9.27;;;7.40;46.40;;;;;;5029474;28;20253;-69
2021/12/22 11:22:46;;;;;;;11.63;9.13;;;7.80;45.50;;;;;;5033132;28;20199;-68
2021/12/22 11:25:16;;;;;;;15.48;9.23;;;8.20;43.80;;;;;;5028671;28;20651;-73
2021/12/22 11:27:44;;;;;;;12.60;9.00;;;8.50;43.30;;;;;;5035663;28;20507;-69
2021/12/22 11:30:12;;;;;;;14.95;8.90;;;8.80;42.60;;;;;;5031640;28;20253;-68
2021/12/22 11:32:40;;;;;;;12.80;8.63;;;8.90;40.90;;;;;;5030748;28;20187;-69
2021/12/22 11:35:11;;;;;;;12.48;9.65;;;9.00;39.90;;;;;;5030968;28;20223;-69
2021/12/22 11:37:41;;;;;;;11.55;8.50;;;9.00;39.80;;;;;;5043384;28;20548;-68
2021/12/22 11:40:11;;;;;;;16.02;10.63;;;9.10;39.70;;;;;;5032113;28;20191;-68
2021/12/22 11:42:39;;;;;;;13.20;9.45;;;9.20;39.50;;;;;;5032011;28;20547;-69
2021/12/22 11:45:12;;;;;;;11.68;8.80;;;9.40;39.20;;;;;;5031242;28;20275;-68
2021/12/22 11:47:44;;;;;;;15.95;10.85;;;9.60;40.00;;;;;;5030128;28;20554;-68
2021/12/22 11:50:17;;;;;;;17.55;9.15;;;9.70;38.60;;;;;;5029112;28;20298;-69
2021/12/22 11:52:56;;;;;;;12.15;8.52;;;9.90;39.20;;;;;;5028380;28;20191;-69
2021/12/22 11:55:25;;;;;;;14.57;11.55;;;10.20;37.20;;;;;;5029456;28;20278;-68
2021/12/22 11:57:54;;;;;;;15.38;9.00;;;10.10;35.50;;;;;;5025527;28;20191;-69
2021/12/22 12:00:27;;;;;;;11.82;9.70;;;10.20;35.80;;;;;;5030875;28;20202;-69
2021/12/22 12:02:56;;;;;;;14.35;9.85;;;10.00;34.80;;;;;;5034917;28;20184;-70
2021/12/22 12:05:25;;;;;;;12.10;9.88;;;9.60;36.10;;;;;;5028999;28;20191;-68
2021/12/22 12:07:55;;;;;;;11.93;9.02;;;9.60;36.20;;;;;;5039958;28;20237;-68
2021/12/22 12:10:41;;;;;;;12.18;9.55;;;9.60;36.50;;;;;;5031643;28;20188;-70
2021/12/22 12:13:20;;;;;;;14.57;9.75;;;9.60;36.00;;;;;;5029685;28;20187;-68
2021/12/22 12:22:11;;;;;;;14.07;9.85;;;9.20;38.40;;;;;;5040380;28;20194;-68
2021/12/22 12:24:44;;;;;;;14.35;10.05;;;9.20;38.10;;;;;;5031562;28;20197;-68
2021/12/22 12:27:32;;;;;;;10.63;8.10;;;9.30;37.40;;;;;;5027389;28;20478;-69
2021/12/22 12:30:01;;;;;;;12.02;9.10;;;9.30;37.10;;;;;;5033992;28;20191;-69
2021/12/22 12:32:56;;;;;;;13.77;10.13;;;9.20;37.40;;;;;;5035101;28;20323;-69
2021/12/22 12:35:26;;;;;;;16.00;9.95;;;9.20;37.10;;;;;;5019429;28;20262;-69
2021/12/22 12:38:16;;;;;;;13.35;9.55;;;9.20;37.10;;;;;;5031941;28;20184;-68
2021/12/22 12:41:23;;;;;;;14.77;10.25;;;9.10;37.10;;;;;;5029605;28;20220;-69
2021/12/22 12:44:12;;;;;;;15.77;10.68;;;8.60;37.40;;;;;;5026847;28;20191;-71
2021/12/22 12:46:43;;;;;;;14.50;9.80;;;8.10;38.40;;;;;;5030867;28;20192;-68
2021/12/22 12:49:53;;;;;;;14.10;10.20;;;7.90;38.80;;;;;;5028191;28;20199;-69
2021/12/22 12:52:25;;;;;;;12.75;7.55;;;8.00;40.00;;;;;;5028044;28;20222;-69
2021/12/22 12:55:15;;;;;;;15.18;9.88;;;8.00;41.70;;;;;;5030122;28;20216;-69
2021/12/22 12:57:44;;;;;;;11.57;8.50;;;8.10;40.40;;;;;;5031902;28;20266;-69
2021/12/22 13:00:23;;;;;;;12.27;9.50;;;7.90;40.30;;;;;;5032113;28;20199;-69
2021/12/22 13:03:09;;;;;;;15.75;9.48;;;7.90;40.30;;;;;;5028303;28;20270;-69
2021/12/22 13:05:36;;;;;;;14.75;9.07;;;8.00;39.70;;;;;;5029547;28;20591;-68